Terminal Aerodrome Forecast
Issued by NWS

Home | Current Version | Previous Version | Text Only | Print | Product List | Glossary On
Versions: 1 2 3 4 5 6 7 8 9 10 11 12 13 14 15 16 17 18 19 20 21 22 23 24 25 26 27 28 29 30 31 32 33 34 35 36
000
FTUS43 KMKX 202337
TAFUES
TAF
KUES 202337Z 2100/2124 00000KT P6SM SCT200
     FM210600 VRB03KT 2SM BR BKN010
     FM210800 00000KT 1/2SM FG OVC003
     FM211800 VRB04KT 1SM BR VCSH OVC006
     FM212300 08005KT 1/2SM FG OVC003=

USA.gov is the U.S. government's official web portal to all federal, state and local government web resources and services.